Time;durP1;ratioP1;P1;durP2;ratioP2;P2;SDS_P1;SDS_P2;PMS_P1;PMS_P2;Temp;Humidity;BMP_temperature;BMP_pressure;BME280_temperature;BME280_humidity;BME280_pressure;Samples;Min_cycle;Max_cycle;Signal;HPM_P1;HPM_P2
2023/08/29 00:00:51;;;;;;;7.87;7.17;;;14.00;99.90;;;;;;5120214;28;20456;-61
2023/08/29 00:03:18;;;;;;;8.10;7.40;;;14.00;99.90;;;;;;5119174;28;20947;-60
2023/08/29 00:05:46;;;;;;;11.33;7.50;;;14.10;99.90;;;;;;5119775;28;20596;-60
2023/08/29 00:08:13;;;;;;;10.50;7.30;;;14.10;99.90;;;;;;5120722;28;20562;-61
2023/08/29 00:10:40;;;;;;;7.77;6.97;;;14.10;99.90;;;;;;5120079;28;20953;-61
2023/08/29 00:13:08;;;;;;;7.83;6.90;;;14.10;99.90;;;;;;5119548;28;20430;-60
2023/08/29 00:15:35;;;;;;;7.87;7.17;;;14.00;99.90;;;;;;5119103;28;20541;-60
2023/08/29 00:18:04;;;;;;;9.00;7.50;;;14.10;99.90;;;;;;5120252;28;20554;-61
2023/08/29 00:20:31;;;;;;;8.00;7.20;;;14.10;99.90;;;;;;5120314;28;20451;-60
2023/08/29 00:22:58;;;;;;;7.70;7.00;;;14.10;99.90;;;;;;5120095;28;20490;-60
2023/08/29 00:25:26;;;;;;;7.63;6.93;;;14.10;99.90;;;;;;5118637;28;20462;-60
2023/08/29 00:27:53;;;;;;;7.37;6.67;;;14.10;99.90;;;;;;5120361;28;20451;-60
2023/08/29 00:30:21;;;;;;;8.73;7.93;;;14.10;99.90;;;;;;5119800;28;20512;-61
2023/08/29 00:32:48;;;;;;;10.73;8.03;;;14.10;99.90;;;;;;5119955;28;20761;-61
2023/08/29 00:35:16;;;;;;;11.03;7.83;;;14.10;99.90;;;;;;5118997;28;20495;-61
2023/08/29 00:37:44;;;;;;;8.53;7.73;;;14.10;99.90;;;;;;5117534;28;20628;-60
2023/08/29 00:40:12;;;;;;;8.20;7.40;;;14.00;99.90;;;;;;5099448;28;20721;-60
2023/08/29 00:42:40;;;;;;;8.20;7.37;;;14.00;99.90;;;;;;5099116;28;20481;-61
2023/08/29 00:45:08;;;;;;;7.33;6.73;;;14.00;99.90;;;;;;5098982;28;20478;-61
2023/08/29 00:47:35;;;;;;;8.73;7.50;;;14.00;99.90;;;;;;5099251;28;20952;-61
2023/08/29 00:50:03;;;;;;;8.63;7.87;;;14.00;99.90;;;;;;5115392;28;20460;-61
2023/08/29 00:52:32;;;;;;;10.03;7.73;;;14.00;99.90;;;;;;5098162;28;20452;-61
2023/08/29 00:54:59;;;;;;;7.70;6.90;;;14.00;99.90;;;;;;5098714;28;20492;-60
2023/08/29 00:57:26;;;;;;;8.47;7.67;;;13.90;99.90;;;;;;5099241;28;20456;-61
2023/08/29 00:59:54;;;;;;;7.63;6.93;;;13.90;99.90;;;;;;5098828;28;20463;-61
2023/08/29 01:02:21;;;;;;;8.77;7.97;;;13.80;99.90;;;;;;5111108;28;20465;-62
2023/08/29 01:04:48;;;;;;;8.17;6.77;;;13.80;99.90;;;;;;5119322;28;20528;-61
2023/08/29 01:07:15;;;;;;;9.27;6.90;;;13.70;99.90;;;;;;5119202;28;20459;-60
2023/08/29 01:09:44;;;;;;;8.50;7.60;;;13.70;99.90;;;;;;5119088;28;20462;-60
2023/08/29 01:12:16;;;;;;;8.43;7.40;;;13.60;99.90;;;;;;5112414;28;20811;-61
2023/08/29 01:14:50;;;;;;;9.03;8.13;;;13.60;99.90;;;;;;5097509;28;20487;-60
2023/08/29 01:17:24;;;;;;;8.47;7.60;;;13.50;99.90;;;;;;5105683;28;20458;-60
2023/08/29 01:19:53;;;;;;;8.20;7.37;;;13.40;99.90;;;;;;5118957;28;20558;-61
2023/08/29 01:22:31;;;;;;;43.23;8.33;;;13.40;99.90;;;;;;5118544;28;20487;-60
2023/08/29 01:25:12;;;;;;;8.53;7.63;;;13.40;99.90;;;;;;5118602;28;20491;-61
2023/08/29 01:27:42;;;;;;;7.90;7.20;;;13.30;99.90;;;;;;5112429;28;20570;-61
2023/08/29 01:30:10;;;;;;;8.50;7.60;;;13.20;99.90;;;;;;5098420;28;20551;-61
2023/08/29 01:32:38;;;;;;;7.50;6.70;;;13.20;99.90;;;;;;5098765;28;20466;-61
2023/08/29 01:35:07;;;;;;;8.87;8.07;;;13.20;99.90;;;;;;5098612;28;20493;-61
2023/08/29 01:37:34;;;;;;;9.57;7.73;;;13.20;99.90;;;;;;5118566;28;20487;-61
2023/08/29 01:40:04;;;;;;;8.43;7.70;;;13.20;99.90;;;;;;5118845;28;20982;-60
2023/08/29 01:42:31;;;;;;;8.67;7.53;;;13.20;99.90;;;;;;5118101;28;20772;-61
2023/08/29 01:45:00;;;;;;;8.37;7.57;;;13.10;99.90;;;;;;5117861;28;20487;-61
2023/08/29 01:47:27;;;;;;;9.67;7.50;;;13.10;99.90;;;;;;5118572;28;20456;-61
2023/08/29 01:49:54;;;;;;;8.80;8.00;;;13.10;99.90;;;;;;5118560;28;20760;-61
2023/08/29 01:52:21;;;;;;;9.67;8.77;;;13.10;99.90;;;;;;5118935;28;20455;-60
2023/08/29 01:54:48;;;;;;;9.33;7.53;;;13.10;99.90;;;;;;5117298;28;21002;-61
2023/08/29 01:57:20;;;;;;;8.43;7.53;;;13.20;99.90;;;;;;5118056;28;20491;-61
2023/08/29 01:59:48;;;;;;;9.73;7.87;;;13.10;99.90;;;;;;5118210;28;20554;-60
2023/08/29 02:02:17;;;;;;;8.40;7.70;;;13.20;99.90;;;;;;5118152;28;20455;-61
2023/08/29 02:04:44;;;;;;;8.50;7.47;;;13.10;99.90;;;;;;5117740;28;20763;-63
2023/08/29 02:07:11;;;;;;;12.40;7.30;;;13.00;99.90;;;;;;5116702;28;20791;-61
2023/08/29 02:09:38;;;;;;;9.47;7.87;;;13.00;99.90;;;;;;5117631;28;20550;-61
2023/08/29 02:12:06;;;;;;;9.20;8.20;;;13.00;99.90;;;;;;5117903;28;20838;-60
2023/08/29 02:14:33;;;;;;;9.10;8.30;;;13.00;99.90;;;;;;5117975;28;20536;-60
2023/08/29 02:17:00;;;;;;;9.57;7.97;;;13.00;99.90;;;;;;5117803;28;20942;-61
2023/08/29 02:19:29;;;;;;;9.90;8.60;;;12.90;99.90;;;;;;5117807;28;20546;-60
2023/08/29 02:21:56;;;;;;;8.93;7.80;;;12.90;99.90;;;;;;5116906;28;20459;-60
2023/08/29 02:24:24;;;;;;;9.50;8.10;;;12.90;99.90;;;;;;5117874;28;20756;-61
2023/08/29 02:26:51;;;;;;;9.63;8.63;;;12.90;99.90;;;;;;5117158;28;20451;-61
2023/08/29 02:29:19;;;;;;;12.53;10.00;;;12.90;99.90;;;;;;5117789;28;20462;-61
2023/08/29 02:31:46;;;;;;;8.67;7.97;;;12.90;99.90;;;;;;5116778;28;20465;-61
2023/08/29 02:34:13;;;;;;;10.07;8.60;;;13.00;99.90;;;;;;5117742;28;20488;-61
2023/08/29 02:36:42;;;;;;;10.60;9.70;;;13.00;99.90;;;;;;5116794;28;20479;-61
2023/08/29 02:39:10;;;;;;;9.33;8.43;;;12.90;99.90;;;;;;5117984;28;20468;-61
2023/08/29 02:41:37;;;;;;;10.83;9.70;;;12.80;99.90;;;;;;5116667;28;20460;-61
2023/08/29 02:44:05;;;;;;;11.03;10.00;;;12.80;99.90;;;;;;5116482;28;20477;-62
2023/08/29 02:46:32;;;;;;;10.13;9.10;;;12.70;99.90;;;;;;5117721;28;20456;-61
2023/08/29 02:48:59;;;;;;;11.27;10.27;;;12.70;99.90;;;;;;5117485;28;20456;-61
2023/08/29 02:51:26;;;;;;;10.23;8.53;;;12.80;99.90;;;;;;5117599;28;20455;-61
2023/08/29 02:53:55;;;;;;;10.13;9.23;;;12.80;99.90;;;;;;5116459;28;20506;-61
2023/08/29 02:56:22;;;;;;;10.37;9.47;;;12.90;99.90;;;;;;5117735;28;20557;-61
2023/08/29 02:58:50;;;;;;;9.90;9.00;;;12.90;99.90;;;;;;5117054;28;20456;-62
2023/08/29 03:01:17;;;;;;;10.07;9.17;;;12.80;99.90;;;;;;5117181;28;20864;-61
2023/08/29 03:03:44;;;;;;;9.80;8.90;;;12.80;99.90;;;;;;5116564;28;20632;-61
2023/08/29 03:06:11;;;;;;;8.77;7.97;;;12.80;99.90;;;;;;5117742;28;20455;-61
2023/08/29 03:08:38;;;;;;;10.70;9.60;;;12.80;99.90;;;;;;5116752;28;20460;-61
2023/08/29 03:11:07;;;;;;;12.30;10.10;;;12.80;99.90;;;;;;5116001;28;20463;-61
2023/08/29 03:13:34;;;;;;;11.47;9.40;;;12.80;99.90;;;;;;5116472;28;20462;-61
2023/08/29 03:16:01;;;;;;;10.17;9.20;;;12.80;99.90;;;;;;5117434;28;20834;-61
2023/08/29 03:18:28;;;;;;;10.10;9.10;;;12.70;99.90;;;;;;5117431;28;20478;-61
2023/08/29 03:20:55;;;;;;;11.37;9.43;;;12.80;99.90;;;;;;5116458;28;20471;-61
2023/08/29 03:23:22;;;;;;;9.90;8.90;;;12.80;99.90;;;;;;5116846;28;20463;-61
2023/08/29 03:25:49;;;;;;;10.77;9.80;;;12.80;99.90;;;;;;5117199;28;20464;-61
2023/08/29 03:28:18;;;;;;;10.63;9.63;;;12.80;99.90;;;;;;5117267;28;20478;-62
2023/08/29 03:30:45;;;;;;;10.37;9.37;;;12.70;99.90;;;;;;5117063;28;20882;-61
2023/08/29 03:33:12;;;;;;;10.73;9.73;;;12.70;99.90;;;;;;5116579;28;20460;-61
2023/08/29 03:35:39;;;;;;;10.40;9.50;;;12.60;99.90;;;;;;5117091;28;20495;-61
2023/08/29 03:38:07;;;;;;;10.50;9.50;;;12.50;99.90;;;;;;5119898;28;20467;-60
2023/08/29 03:40:34;;;;;;;10.67;9.30;;;12.50;99.90;;;;;;5121018;28;20889;-62
2023/08/29 03:43:01;;;;;;;10.20;9.30;;;12.50;99.90;;;;;;5121290;28;20466;-61
2023/08/29 03:45:30;;;;;;;11.03;9.90;;;12.50;99.90;;;;;;5120987;28;20565;-61
2023/08/29 03:47:57;;;;;;;10.33;9.27;;;12.50;99.90;;;;;;5120251;28;20452;-61
2023/08/29 03:50:25;;;;;;;11.37;10.27;;;12.50;99.90;;;;;;5120221;28;20483;-62
2023/08/29 03:52:52;;;;;;;11.50;10.43;;;12.50;99.90;;;;;;5120300;28;20760;-61
2023/08/29 03:55:19;;;;;;;10.47;9.53;;;12.50;99.90;;;;;;5120324;28;20491;-61
2023/08/29 03:57:46;;;;;;;10.33;9.30;;;12.40;99.90;;;;;;5120837;28;20545;-61
2023/08/29 04:00:15;;;;;;;11.63;10.43;;;12.40;99.90;;;;;;5120163;28;20513;-62
2023/08/29 04:02:44;;;;;;;12.20;8.83;;;12.40;99.90;;;;;;5120059;28;20456;-61
2023/08/29 04:05:15;;;;;;;11.30;9.70;;;12.40;99.90;;;;;;5119893;28;20451;-61
2023/08/29 04:07:44;;;;;;;11.13;10.23;;;12.40;99.90;;;;;;5120710;28;20466;-61
2023/08/29 04:10:13;;;;;;;11.00;9.40;;;12.40;99.90;;;;;;5120844;28;20766;-61
2023/08/29 04:12:40;;;;;;;9.60;8.63;;;12.40;99.90;;;;;;5119962;28;20459;-61
2023/08/29 04:15:10;;;;;;;10.13;9.13;;;12.30;99.90;;;;;;5118695;28;21001;-61
2023/08/29 04:17:37;;;;;;;8.93;8.13;;;12.30;99.90;;;;;;5119582;28;20463;-61
2023/08/29 04:20:08;;;;;;;9.80;8.80;;;12.30;99.90;;;;;;5120703;28;20809;-62
2023/08/29 04:22:36;;;;;;;10.03;9.03;;;12.20;99.90;;;;;;5119969;28;20459;-61
2023/08/29 04:25:04;;;;;;;10.90;9.13;;;12.20;99.90;;;;;;5119891;28;20459;-62
2023/08/29 04:27:31;;;;;;;10.40;9.30;;;12.10;99.90;;;;;;5119409;28;20464;-62
2023/08/29 04:29:59;;;;;;;9.97;8.97;;;12.10;99.90;;;;;;5119754;28;20582;-61
2023/08/29 04:32:26;;;;;;;10.20;9.20;;;12.10;99.90;;;;;;5119847;28;20834;-62
2023/08/29 04:34:53;;;;;;;12.00;10.63;;;12.10;99.90;;;;;;5119104;28;20488;-61
2023/08/29 04:37:22;;;;;;;11.57;10.47;;;12.00;99.90;;;;;;5118672;28;20457;-62
2023/08/29 04:39:49;;;;;;;11.13;9.93;;;12.10;99.90;;;;;;5120097;28;20472;-61
2023/08/29 04:42:17;;;;;;;15.13;10.07;;;12.10;99.90;;;;;;5118632;28;20503;-62
2023/08/29 04:44:44;;;;;;;10.63;9.53;;;12.00;99.90;;;;;;5119178;28;20441;-62
2023/08/29 04:47:11;;;;;;;11.13;10.03;;;12.00;99.90;;;;;;5119549;28;20498;-61
2023/08/29 04:49:38;;;;;;;10.63;9.60;;;12.00;99.90;;;;;;5118253;28;20462;-61
2023/08/29 04:52:06;;;;;;;11.27;10.10;;;12.10;99.90;;;;;;5118000;28;20525;-61
2023/08/29 04:54:34;;;;;;;13.37;11.30;;;12.00;99.90;;;;;;5119520;28;20491;-61
2023/08/29 04:57:03;;;;;;;12.80;11.40;;;12.00;99.90;;;;;;5118765;28;20495;-61
2023/08/29 04:59:31;;;;;;;12.83;10.77;;;12.10;99.90;;;;;;5119074;28;20803;-61
2023/08/29 05:01:58;;;;;;;12.60;11.27;;;12.10;99.90;;;;;;5117585;28;20832;-61
2023/08/29 05:04:26;;;;;;;14.43;11.83;;;12.10;99.90;;;;;;5119440;28;20513;-61
2023/08/29 05:06:53;;;;;;;12.70;11.50;;;12.10;99.90;;;;;;5119337;28;20451;-61
2023/08/29 05:09:20;;;;;;;14.33;11.20;;;12.10;99.90;;;;;;5119260;28;20797;-61
2023/08/29 05:11:49;;;;;;;12.57;11.27;;;12.10;99.90;;;;;;5119283;28;20459;-61
2023/08/29 05:14:16;;;;;;;12.60;11.30;;;12.20;99.90;;;;;;5119431;28;20550;-61
2023/08/29 05:16:44;;;;;;;14.60;13.10;;;12.20;99.90;;;;;;5118709;28;20511;-62
2023/08/29 05:19:12;;;;;;;13.03;11.70;;;12.30;99.90;;;;;;5119307;28;20478;-62
2023/08/29 05:21:39;;;;;;;14.10;12.00;;;12.30;99.90;;;;;;5119379;28;20509;-62
2023/08/29 05:24:07;;;;;;;13.00;11.63;;;12.30;99.90;;;;;;5119430;28;20481;-62
2023/08/29 05:26:34;;;;;;;17.03;12.00;;;12.30;99.90;;;;;;5119380;28;20766;-62
2023/08/29 05:29:02;;;;;;;13.87;12.33;;;12.40;99.90;;;;;;5119391;28;20566;-62
2023/08/29 05:31:30;;;;;;;12.77;11.53;;;12.50;99.90;;;;;;5118380;28;20765;-63
2023/08/29 05:33:57;;;;;;;15.53;13.30;;;12.60;99.90;;;;;;5117683;28;20462;-62
2023/08/29 05:36:25;;;;;;;13.70;12.40;;;12.70;99.90;;;;;;5105690;28;20535;-61
2023/08/29 05:38:52;;;;;;;17.13;13.07;;;12.70;99.90;;;;;;5102895;28;20490;-61
2023/08/29 05:41:19;;;;;;;13.40;11.67;;;12.90;99.90;;;;;;5099790;28;20535;-60
2023/08/29 05:43:46;;;;;;;13.37;12.03;;;13.00;99.90;;;;;;5096115;28;20522;-62
2023/08/29 05:46:15;;;;;;;15.63;11.80;;;12.90;99.90;;;;;;5096639;28;20534;-61
2023/08/29 05:48:42;;;;;;;14.33;12.70;;;13.10;99.90;;;;;;5097320;28;20503;-61
2023/08/29 05:51:09;;;;;;;14.90;10.97;;;13.20;99.90;;;;;;5096357;28;20724;-62
2023/08/29 05:53:37;;;;;;;12.47;11.20;;;13.20;99.90;;;;;;5097312;28;20498;-62
2023/08/29 05:56:04;;;;;;;13.83;12.33;;;13.20;99.90;;;;;;5096955;28;20575;-62
2023/08/29 05:58:32;;;;;;;13.93;12.40;;;13.30;99.90;;;;;;5096176;28;20467;-62
2023/08/29 06:00:59;;;;;;;15.40;12.70;;;13.40;99.90;;;;;;5097034;28;20464;-62
2023/08/29 06:03:28;;;;;;;14.07;12.60;;;13.50;99.90;;;;;;5096393;28;20542;-62
2023/08/29 06:05:55;;;;;;;16.70;14.20;;;13.60;99.90;;;;;;5096394;28;20822;-61
2023/08/29 06:08:23;;;;;;;17.93;13.47;;;13.70;99.90;;;;;;5096626;28;20463;-62
2023/08/29 06:10:50;;;;;;;15.67;14.17;;;13.70;99.90;;;;;;5097235;28;20890;-62
2023/08/29 06:13:18;;;;;;;14.87;13.07;;;13.80;99.90;;;;;;5095885;28;20877;-62
2023/08/29 06:15:45;;;;;;;13.57;12.27;;;13.90;99.90;;;;;;5096862;28;20484;-62
2023/08/29 06:18:12;;;;;;;13.27;11.87;;;13.90;99.90;;;;;;5095581;28;20452;-61
2023/08/29 06:20:41;;;;;;;13.47;12.20;;;14.00;99.90;;;;;;5095550;28;20460;-62
2023/08/29 06:23:08;;;;;;;13.00;11.70;;;14.00;99.90;;;;;;5115861;28;20456;-62
2023/08/29 06:25:36;;;;;;;15.20;13.73;;;14.00;99.90;;;;;;5116238;28;20490;-62
2023/08/29 06:28:03;;;;;;;13.77;12.47;;;14.10;99.90;;;;;;5116455;28;20462;-62
2023/08/29 06:30:30;;;;;;;15.67;12.93;;;14.20;99.90;;;;;;5116233;28;20554;-61
2023/08/29 06:32:57;;;;;;;14.03;12.80;;;14.30;99.90;;;;;;5116546;28;20554;-61
2023/08/29 06:35:25;;;;;;;15.87;14.17;;;14.30;99.90;;;;;;5113714;28;20537;-62
2023/08/29 06:37:55;;;;;;;13.33;11.93;;;14.40;99.90;;;;;;5117672;28;20765;-62
2023/08/29 06:40:24;;;;;;;15.97;13.47;;;14.50;99.90;;;;;;5117436;28;20558;-62
2023/08/29 06:42:51;;;;;;;15.90;13.90;;;14.50;99.90;;;;;;5117343;28;20556;-62
2023/08/29 06:45:18;;;;;;;16.20;14.50;;;14.60;99.90;;;;;;5103559;28;20496;-62
2023/08/29 06:47:45;;;;;;;16.83;13.77;;;14.60;99.90;;;;;;5096688;28;20936;-62
2023/08/29 06:50:13;;;;;;;16.23;14.63;;;14.70;51.50;;;;;;5096765;28;20460;-62
2023/08/29 06:52:40;;;;;;;16.80;15.20;;;14.80;7.00;;;;;;5096921;28;20867;-62
2023/08/29 06:55:10;;;;;;;17.63;15.83;;;14.90;1.00;;;;;;5101377;28;20459;-62
2023/08/29 06:57:38;;;;;;;17.07;14.93;;;15.00;1.00;;;;;;5116431;28;20487;-62
2023/08/29 07:00:06;;;;;;;18.43;15.47;;;15.10;1.00;;;;;;5116700;28;20520;-62
2023/08/29 07:02:33;;;;;;;17.53;15.80;;;15.20;1.00;;;;;;5116359;28;20509;-62
2023/08/29 07:05:00;;;;;;;18.77;16.97;;;15.30;1.00;;;;;;5115802;28;20745;-62
2023/08/29 07:07:28;;;;;;;17.90;15.30;;;15.40;1.00;;;;;;5096551;28;20749;-62
2023/08/29 07:09:56;;;;;;;16.83;15.13;;;15.40;1.00;;;;;;5097004;28;20563;-62
2023/08/29 07:12:25;;;;;;;14.90;13.50;;;15.50;1.00;;;;;;5098957;28;20464;-61
2023/08/29 07:14:52;;;;;;;16.07;14.50;;;15.50;99.90;;;;;;5099630;28;20457;-61
2023/08/29 07:17:20;;;;;;;18.97;15.27;;;15.60;99.90;;;;;;5100400;28;20932;-62
2023/08/29 07:19:47;;;;;;;15.87;14.47;;;15.70;99.90;;;;;;5099690;28;20464;-61
2023/08/29 07:22:16;;;;;;;17.97;16.27;;;15.70;99.90;;;;;;5099127;28;20547;-61
2023/08/29 07:24:43;;;;;;;18.63;16.93;;;15.80;99.90;;;;;;5096765;28;20551;-60
2023/08/29 07:27:11;;;;;;;18.10;16.30;;;15.90;99.90;;;;;;5104767;28;20451;-61
2023/08/29 07:29:41;;;;;;;16.30;14.70;;;15.90;99.90;;;;;;5119468;28;20497;-61
2023/08/29 07:32:08;;;;;;;17.10;15.60;;;15.90;40.10;;;;;;5119561;28;20847;-61
2023/08/29 07:34:38;;;;;;;18.33;16.43;;;15.90;31.30;;;;;;5119267;28;20911;-61
2023/08/29 07:37:06;;;;;;;16.90;15.23;;;16.00;41.60;;;;;;5117382;28;20498;-59
2023/08/29 07:39:34;;;;;;;17.50;15.80;;;16.20;99.90;;;;;;5116402;28;20492;-61
2023/08/29 07:42:02;;;;;;;17.30;15.50;;;16.30;1.00;;;;;;5120397;28;20455;-62
2023/08/29 07:44:30;;;;;;;17.13;15.53;;;16.20;1.00;;;;;;5121086;28;20868;-62
2023/08/29 07:46:59;;;;;;;16.30;14.80;;;16.30;99.90;;;;;;5120554;28;20459;-61
2023/08/29 07:49:27;;;;;;;17.83;15.90;;;16.40;40.30;;;;;;5120341;28;20836;-62
2023/08/29 07:51:55;;;;;;;15.83;14.13;;;16.50;99.90;;;;;;5118295;28;20554;-62
2023/08/29 07:54:23;;;;;;;15.73;14.03;;;16.50;99.90;;;;;;5120846;28;20459;-62
2023/08/29 07:56:50;;;;;;;17.00;14.50;;;16.50;99.90;;;;;;5120731;28;20576;-62
2023/08/29 07:59:17;;;;;;;14.93;13.43;;;16.50;99.90;;;;;;5120407;28;20912;-61
2023/08/29 08:01:45;;;;;;;15.00;12.80;;;16.70;99.90;;;;;;5109812;28;20550;-62
2023/08/29 08:04:14;;;;;;;13.40;12.20;;;16.90;99.90;;;;;;5100266;28;20903;-62
2023/08/29 08:06:41;;;;;;;13.33;12.03;;;16.80;99.90;;;;;;5099487;28;20913;-62
2023/08/29 08:09:09;;;;;;;12.93;11.63;;;16.80;73.50;;;;;;5099466;28;20460;-62
2023/08/29 08:11:37;;;;;;;12.47;11.27;;;17.00;99.90;;;;;;5103942;28;20602;-62
2023/08/29 08:14:04;;;;;;;10.60;9.50;;;17.20;1.00;;;;;;5111489;28;20467;-62
2023/08/29 08:16:32;;;;;;;10.20;9.20;;;17.30;99.90;;;;;;5099629;28;20519;-62
2023/08/29 08:18:59;;;;;;;8.63;7.70;;;17.30;1.00;;;;;;5099787;28;20756;-61
2023/08/29 08:21:28;;;;;;;8.93;8.03;;;17.30;1.00;;;;;;5099593;28;20460;-61
2023/08/29 08:23:56;;;;;;;8.87;7.47;;;17.50;1.00;;;;;;5099804;28;20990;-61
2023/08/29 08:26:23;;;;;;;9.33;8.30;;;17.40;1.00;;;;;;5098176;28;20843;-61
2023/08/29 08:28:52;;;;;;;9.50;8.70;;;17.40;1.00;;;;;;5098110;28;20460;-61
2023/08/29 08:31:19;;;;;;;9.00;8.20;;;17.30;99.90;;;;;;5079355;28;20899;-61
2023/08/29 08:33:47;;;;;;;10.33;9.10;;;17.00;99.90;;;;;;5079157;28;20564;-61
2023/08/29 08:36:14;;;;;;;9.53;8.50;;;16.90;99.90;;;;;;5086726;28;20496;-59
2023/08/29 08:38:43;;;;;;;9.43;8.57;;;17.00;99.90;;;;;;5114903;28;20542;-62
2023/08/29 08:41:12;;;;;;;9.33;8.43;;;16.90;99.90;;;;;;5118927;28;20463;-62
2023/08/29 08:43:41;;;;;;;8.17;7.50;;;17.10;99.90;;;;;;5119520;28;20460;-62
2023/08/29 08:46:09;;;;;;;10.20;8.93;;;17.30;99.90;;;;;;5119100;28;20466;-62
2023/08/29 08:48:38;;;;;;;8.67;7.47;;;17.40;99.90;;;;;;5117834;28;20506;-62
2023/08/29 08:51:07;;;;;;;8.23;7.00;;;17.60;99.90;;;;;;5116859;28;20459;-62
2023/08/29 08:53:36;;;;;;;8.57;7.23;;;17.90;99.90;;;;;;5117884;28;20918;-61
2023/08/29 08:56:05;;;;;;;8.27;7.47;;;17.70;1.00;;;;;;5117760;28;20459;-61
2023/08/29 08:58:33;;;;;;;7.83;7.07;;;17.70;99.90;;;;;;5118073;28;20550;-62
2023/08/29 09:01:00;;;;;;;6.80;6.10;;;18.00;1.00;;;;;;5117236;28;20845;-62
2023/08/29 09:03:28;;;;;;;6.87;6.20;;;18.10;99.90;;;;;;5119346;28;20462;-62
2023/08/29 09:05:55;;;;;;;7.90;7.10;;;18.30;1.00;;;;;;5119099;28;20504;-62
2023/08/29 09:08:22;;;;;;;5.63;5.13;;;18.60;99.90;;;;;;5119098;28;20831;-62
2023/08/29 09:10:53;;;;;;;7.10;5.80;;;19.00;99.90;;;;;;5118109;28;20508;-61
2023/08/29 09:13:22;;;;;;;5.27;4.77;;;19.10;1.00;;;;;;5107393;28;20471;-62
2023/08/29 09:15:49;;;;;;;5.63;5.13;;;19.00;72.30;;;;;;5127004;27;20455;-62
2023/08/29 09:18:25;;;;;;;5.40;4.90;;;19.30;52.70;;;;;;5118914;28;20968;-62
2023/08/29 09:20:54;;;;;;;6.37;5.13;;;19.00;1.00;;;;;;5117324;28;20464;-62
2023/08/29 09:23:22;;;;;;;5.50;5.00;;;18.80;20.20;;;;;;5117725;28;20459;-62
2023/08/29 09:25:56;;;;;;;6.50;4.40;;;19.10;99.90;;;;;;5117290;28;20483;-62
2023/08/29 09:28:27;;;;;;;3.83;3.53;;;18.80;21.40;;;;;;5118760;28;20483;-62
2023/08/29 09:30:55;;;;;;;4.60;4.20;;;18.80;91.60;;;;;;5118610;28;20463;-62
2023/08/29 09:33:23;;;;;;;4.53;3.97;;;19.10;99.90;;;;;;5118724;28;20456;-62
2023/08/29 09:35:50;;;;;;;4.37;3.37;;;18.80;99.90;;;;;;5117132;28;20566;-61
2023/08/29 09:38:19;;;;;;;3.87;3.57;;;18.60;99.90;;;;;;5113659;28;20860;-62
2023/08/29 09:40:47;;;;;;;6.97;3.67;;;18.60;99.90;;;;;;5116958;28;20508;-62
2023/08/29 09:43:16;;;;;;;5.87;4.00;;;18.60;99.90;;;;;;5117418;28;20976;-62
2023/08/29 09:45:50;;;;;;;3.33;3.03;;;18.80;99.90;;;;;;5117093;28;20459;-63
2023/08/29 09:48:18;;;;;;;4.33;3.47;;;19.30;99.90;;;;;;5104991;28;20475;-62
2023/08/29 09:50:46;;;;;;;3.07;2.77;;;19.50;1.00;;;;;;5097605;28;20737;-62
2023/08/29 09:53:16;;;;;;;4.10;3.70;;;19.60;99.90;;;;;;5113871;28;20558;-62
2023/08/29 09:55:48;;;;;;;4.20;3.87;;;19.10;99.90;;;;;;5088079;28;20474;-62
2023/08/29 09:58:17;;;;;;;3.17;2.80;;;18.80;99.90;;;;;;5078090;28;20489;-62
2023/08/29 10:00:47;;;;;;;3.70;2.90;;;18.90;99.90;;;;;;5077552;28;20556;-61
2023/08/29 10:03:16;;;;;;;3.93;3.53;;;18.60;1.00;;;;;;5102550;28;20512;-62
2023/08/29 10:05:46;;;;;;;4.17;3.77;;;18.60;99.90;;;;;;5117583;28;20495;-61
2023/08/29 10:08:19;;;;;;;5.40;2.87;;;18.70;1.00;;;;;;5087551;28;20586;-62
2023/08/29 10:10:47;;;;;;;4.00;3.57;;;18.90;99.90;;;;;;5077010;28;20457;-61
2023/08/29 10:13:17;;;;;;;4.40;4.00;;;19.10;99.90;;;;;;5079784;28;20902;-61
2023/08/29 10:15:47;;;;;;;4.40;4.00;;;18.90;1.00;;;;;;5075723;28;20584;-62
2023/08/29 10:18:16;;;;;;;4.00;3.60;;;19.20;1.00;;;;;;5091084;28;20488;-61
2023/08/29 10:20:44;;;;;;;5.13;3.63;;;19.10;99.90;;;;;;5097297;28;20460;-62
2023/08/29 10:23:13;;;;;;;3.50;3.20;;;18.90;86.80;;;;;;5097381;28;20464;-62
2023/08/29 10:25:41;;;;;;;4.97;4.57;;;18.80;1.00;;;;;;5097286;28;20468;-62
2023/08/29 10:28:12;;;;;;;4.97;4.10;;;18.60;99.90;;;;;;5096689;28;21010;-63
2023/08/29 10:30:41;;;;;;;4.70;4.30;;;19.00;36.30;;;;;;5097230;28;20562;-62
2023/08/29 10:33:12;;;;;;;6.23;5.23;;;18.90;84.10;;;;;;5097284;28;20921;-62
2023/08/29 10:35:39;;;;;;;6.63;5.17;;;19.10;1.00;;;;;;5108712;28;20897;-62
2023/08/29 10:38:12;;;;;;;6.17;5.57;;;19.40;1.00;;;;;;5115133;28;20483;-62
2023/08/29 10:40:40;;;;;;;5.83;5.37;;;19.50;99.90;;;;;;5114532;28;20915;-62
2023/08/29 10:43:18;;;;;;;6.03;5.50;;;20.40;1.00;;;;;;5116067;28;20550;-61
2023/08/29 10:45:50;;;;;;;6.80;6.20;;;20.80;1.00;;;;;;5114586;28;20455;-62
2023/08/29 10:48:19;;;;;;;7.13;6.53;;;20.40;1.00;;;;;;5113190;28;20487;-62
2023/08/29 10:50:48;;;;;;;6.60;5.83;;;20.40;1.00;;;;;;5115481;28;20982;-62
2023/08/29 10:53:20;;;;;;;7.57;6.97;;;20.10;99.90;;;;;;5116646;28;20538;-62
2023/08/29 10:56:03;;;;;;;9.53;8.60;;;19.80;1.00;;;;;;5116205;28;20471;-62
2023/08/29 10:58:35;;;;;;;7.63;6.93;;;20.20;20.50;;;;;;5122280;28;20486;-62
2023/08/29 11:01:04;;;;;;;8.33;7.73;;;20.70;1.00;;;;;;5136372;28;20549;-62
2023/08/29 11:03:58;;;;;;;8.40;7.80;;;20.30;1.00;;;;;;5123398;28;20783;-62
2023/08/29 11:06:26;;;;;;;8.00;7.40;;;20.10;1.00;;;;;;5096017;28;20550;-62
2023/08/29 11:09:20;;;;;;;7.90;7.30;;;20.10;99.90;;;;;;5128151;28;20875;-62
2023/08/29 11:12:06;;;;;;;8.03;7.33;;;20.60;92.00;;;;;;5111535;28;20542;-61
2023/08/29 11:14:56;;;;;;;8.77;8.07;;;19.90;97.60;;;;;;5112596;28;20548;-62
2023/08/29 11:17:24;;;;;;;6.93;6.10;;;20.40;1.00;;;;;;5115409;28;20491;-62
2023/08/29 11:19:57;;;;;;;7.03;5.97;;;20.00;99.90;;;;;;5115828;28;20455;-62
2023/08/29 11:22:25;;;;;;;6.73;6.13;;;20.20;99.90;;;;;;5116685;28;20456;-63
2023/08/29 11:24:55;;;;;;;6.03;5.47;;;21.00;1.00;;;;;;5116659;28;20458;-62
2023/08/29 11:27:23;;;;;;;7.33;6.40;;;21.40;1.00;;;;;;5116532;28;20456;-62
2023/08/29 11:29:52;;;;;;;5.67;4.90;;;22.20;99.90;;;;;;5117246;28;20455;-62
2023/08/29 11:32:20;;;;;;;5.87;5.30;;;21.40;99.90;;;;;;5116872;28;20767;-62
2023/08/29 11:34:52;;;;;;;4.83;4.43;;;22.00;1.00;;;;;;5117596;28;20455;-61
2023/08/29 11:37:23;;;;;;;5.93;4.80;;;21.40;1.00;;;;;;5114779;28;20757;-62
2023/08/29 11:39:54;;;;;;;4.70;4.30;;;21.10;1.00;;;;;;5117434;28;20459;-62
2023/08/29 11:42:22;;;;;;;4.40;4.00;;;20.90;1.00;;;;;;5116475;28;20463;-62
2023/08/29 11:44:50;;;;;;;4.30;3.80;;;21.00;1.00;;;;;;5104654;28;20964;-62
2023/08/29 11:47:18;;;;;;;4.43;3.53;;;20.80;1.00;;;;;;5095024;28;20467;-62
2023/08/29 11:49:51;;;;;;;5.17;3.50;;;21.00;1.00;;;;;;5095749;28;20456;-62
2023/08/29 11:52:20;;;;;;;3.30;3.00;;;21.40;1.00;;;;;;5096704;28;20462;-62
2023/08/29 11:54:50;;;;;;;4.50;4.10;;;20.70;1.00;;;;;;5096713;28;20542;-62
2023/08/29 11:57:18;;;;;;;6.30;4.30;;;20.00;1.00;;;;;;5096879;28;21156;-62
2023/08/29 11:59:46;;;;;;;4.27;3.50;;;20.70;1.00;;;;;;5093376;28;20563;-62
2023/08/29 12:02:16;;;;;;;3.17;2.97;;;21.70;1.00;;;;;;5086281;28;20465;-62
2023/08/29 12:04:44;;;;;;;4.20;2.80;;;21.60;1.00;;;;;;5079555;28;20497;-62
2023/08/29 12:07:12;;;;;;;3.03;2.73;;;22.40;1.00;;;;;;5079370;28;20463;-62
2023/08/29 12:09:42;;;;;;;3.27;2.97;;;22.20;1.00;;;;;;5096412;28;20460;-62
2023/08/29 12:12:27;;;;;;;3.90;3.33;;;22.50;1.00;;;;;;5094590;28;20553;-62
2023/08/29 12:14:55;;;;;;;4.33;3.00;;;22.50;1.00;;;;;;5097741;28;20963;-62
2023/08/29 12:17:23;;;;;;;3.30;3.00;;;22.00;1.00;;;;;;5096453;28;20541;-62
2023/08/29 12:19:51;;;;;;;5.23;4.00;;;21.80;35.00;;;;;;5099295;28;20858;-62
2023/08/29 12:22:30;;;;;;;4.67;3.80;;;21.20;1.00;;;;;;5097933;28;20464;-62
2023/08/29 12:24:59;;;;;;;4.30;4.00;;;21.00;1.00;;;;;;5086464;28;20471;-62
2023/08/29 12:27:27;;;;;;;4.00;3.27;;;21.00;1.00;;;;;;5098930;28;20453;-62
2023/08/29 12:29:55;;;;;;;3.43;2.87;;;21.30;1.00;;;;;;5096340;28;20468;-62
2023/08/29 12:32:27;;;;;;;3.53;3.20;;;21.10;1.00;;;;;;5097310;28;20878;-62
2023/08/29 12:34:55;;;;;;;4.13;3.00;;;20.90;1.00;;;;;;5096129;28;20869;-62
2023/08/29 12:37:23;;;;;;;4.90;3.07;;;20.90;1.00;;;;;;5116707;28;20495;-62
2023/08/29 12:39:51;;;;;;;4.53;4.13;;;21.00;1.00;;;;;;5119553;28;20451;-62
2023/08/29 12:42:20;;;;;;;4.10;3.67;;;21.50;1.00;;;;;;5118499;28;20766;-62
2023/08/29 12:44:48;;;;;;;4.73;4.00;;;21.90;1.00;;;;;;5117052;28;20459;-62
2023/08/29 12:47:15;;;;;;;3.73;3.43;;;21.80;1.00;;;;;;5118586;28;20559;-62